sensor_id;sensor_type;location;lat;lon;timestamp;pressure;altitude;pressure_sealevel;temperature;humidity
23616;BME280;11985;49.404;7.734;2023-05-22T00:01:33;96965.34;;;13.72;100.00
23616;BME280;11985;49.404;7.734;2023-05-22T00:06:41;96962.81;;;13.66;100.00
23616;BME280;11985;49.404;7.734;2023-05-22T00:11:43;96962.34;;;13.57;100.00
23616;BME280;11985;49.404;7.734;2023-05-22T00:16:44;96955.78;;;13.60;100.00
23616;BME280;11985;49.404;7.734;2023-05-22T00:21:48;96958.66;;;13.58;100.00
23616;BME280;11985;49.404;7.734;2023-05-22T00:26:50;96960.75;;;13.56;100.00
23616;BME280;11985;49.404;7.734;2023-05-22T00:31:52;96964.09;;;13.52;100.00
23616;BME280;11985;49.404;7.734;2023-05-22T00:36:54;96956.72;;;13.42;100.00
23616;BME280;11985;49.404;7.734;2023-05-22T00:41:56;96958.69;;;13.35;100.00
23616;BME280;11985;49.404;7.734;2023-05-22T00:46:58;96960.28;;;13.36;100.00
23616;BME280;11985;49.404;7.734;2023-05-22T00:52:02;96962.38;;;13.34;100.00
23616;BME280;11985;49.404;7.734;2023-05-22T00:57:04;96954.06;;;13.18;100.00
23616;BME280;11985;49.404;7.734;2023-05-22T01:02:06;96959.78;;;13.15;100.00
23616;BME280;11985;49.404;7.734;2023-05-22T01:07:09;96966.72;;;13.16;100.00
23616;BME280;11985;49.404;7.734;2023-05-22T01:12:19;96960.03;;;13.14;100.00
23616;BME280;11985;49.404;7.734;2023-05-22T01:17:27;96954.63;;;13.09;100.00
23616;BME280;11985;49.404;7.734;2023-05-22T01:28:13;96949.44;;;13.02;100.00
23616;BME280;11985;49.404;7.734;2023-05-22T01:33:23;96946.69;;;12.97;100.00
23616;BME280;11985;49.404;7.734;2023-05-22T01:38:26;96950.78;;;12.93;100.00
23616;BME280;11985;49.404;7.734;2023-05-22T01:43:28;96948.03;;;12.88;100.00
23616;BME280;11985;49.404;7.734;2023-05-22T01:48:31;96952.63;;;12.81;100.00
23616;BME280;11985;49.404;7.734;2023-05-22T01:53:39;96946.31;;;12.82;100.00
23616;BME280;11985;49.404;7.734;2023-05-22T01:58:45;96955.59;;;12.73;100.00
23616;BME280;11985;49.404;7.734;2023-05-22T02:03:49;96950.03;;;12.51;100.00
23616;BME280;11985;49.404;7.734;2023-05-22T02:08:55;96957.19;;;12.32;100.00
23616;BME280;11985;49.404;7.734;2023-05-22T02:13:57;96962.00;;;12.23;100.00
23616;BME280;11985;49.404;7.734;2023-05-22T02:19:00;96962.09;;;12.17;100.00
23616;BME280;11985;49.404;7.734;2023-05-22T02:24:05;96968.69;;;12.07;100.00
23616;BME280;11985;49.404;7.734;2023-05-22T02:29:06;96963.41;;;12.07;100.00
23616;BME280;11985;49.404;7.734;2023-05-22T02:34:09;96962.97;;;12.10;100.00
23616;BME280;11985;49.404;7.734;2023-05-22T02:39:11;96960.91;;;12.12;100.00
23616;BME280;11985;49.404;7.734;2023-05-22T02:44:13;96953.28;;;12.04;100.00
23616;BME280;11985;49.404;7.734;2023-05-22T02:49:15;96950.88;;;12.03;100.00
23616;BME280;11985;49.404;7.734;2023-05-22T02:54:17;96949.63;;;12.05;100.00
23616;BME280;11985;49.404;7.734;2023-05-22T02:59:18;96950.06;;;12.02;100.00
23616;BME280;11985;49.404;7.734;2023-05-22T03:04:21;96962.69;;;12.00;100.00
23616;BME280;11985;49.404;7.734;2023-05-22T03:09:23;96952.56;;;11.97;100.00
23616;BME280;11985;49.404;7.734;2023-05-22T03:14:26;96956.25;;;11.96;100.00
23616;BME280;11985;49.404;7.734;2023-05-22T03:19:29;96948.41;;;11.89;100.00
23616;BME280;11985;49.404;7.734;2023-05-22T03:24:31;96949.63;;;11.87;100.00
23616;BME280;11985;49.404;7.734;2023-05-22T03:29:32;96950.72;;;11.79;100.00
23616;BME280;11985;49.404;7.734;2023-05-22T03:34:35;96951.31;;;11.63;100.00
23616;BME280;11985;49.404;7.734;2023-05-22T03:39:37;96956.66;;;11.56;100.00
23616;BME280;11985;49.404;7.734;2023-05-22T03:44:40;96957.84;;;11.60;100.00
23616;BME280;11985;49.404;7.734;2023-05-22T03:49:43;96954.97;;;11.62;100.00
23616;BME280;11985;49.404;7.734;2023-05-22T03:54:45;96956.50;;;11.70;100.00
23616;BME280;11985;49.404;7.734;2023-05-22T03:59:48;96955.16;;;11.85;100.00
23616;BME280;11985;49.404;7.734;2023-05-22T04:04:51;96957.56;;;12.05;100.00
23616;BME280;11985;49.404;7.734;2023-05-22T04:09:52;96957.94;;;12.21;100.00
23616;BME280;11985;49.404;7.734;2023-05-22T04:14:54;96959.59;;;12.22;100.00
23616;BME280;11985;49.404;7.734;2023-05-22T04:19:57;96957.94;;;12.21;100.00
23616;BME280;11985;49.404;7.734;2023-05-22T04:24:58;96959.59;;;12.22;100.00
23616;BME280;11985;49.404;7.734;2023-05-22T04:30:01;96962.44;;;12.20;100.00
23616;BME280;11985;49.404;7.734;2023-05-22T04:35:05;96965.72;;;12.15;100.00
23616;BME280;11985;49.404;7.734;2023-05-22T04:40:07;96959.59;;;12.22;100.00
23616;BME280;11985;49.404;7.734;2023-05-22T04:45:10;96964.31;;;12.31;100.00
23616;BME280;11985;49.404;7.734;2023-05-22T04:50:14;96964.22;;;12.38;100.00
23616;BME280;11985;49.404;7.734;2023-05-22T04:55:16;96969.22;;;12.58;100.00
23616;BME280;11985;49.404;7.734;2023-05-22T05:00:18;96965.97;;;12.86;100.00
23616;BME280;11985;49.404;7.734;2023-05-22T05:05:26;96967.03;;;13.08;100.00
23616;BME280;11985;49.404;7.734;2023-05-22T05:10:28;96974.88;;;13.27;100.00
23616;BME280;11985;49.404;7.734;2023-05-22T05:15:30;96971.56;;;13.43;100.00
23616;BME280;11985;49.404;7.734;2023-05-22T05:20:33;96964.44;;;13.55;100.00
23616;BME280;11985;49.404;7.734;2023-05-22T05:25:34;96968.09;;;13.78;100.00
23616;BME280;11985;49.404;7.734;2023-05-22T05:30:38;96976.75;;;14.13;100.00
23616;BME280;11985;49.404;7.734;2023-05-22T05:35:41;96976.19;;;14.40;100.00
23616;BME280;11985;49.404;7.734;2023-05-22T05:40:43;96979.66;;;14.69;100.00
23616;BME280;11985;49.404;7.734;2023-05-22T05:45:44;96985.94;;;14.96;100.00
23616;BME280;11985;49.404;7.734;2023-05-22T05:50:47;96983.63;;;15.34;100.00
23616;BME280;11985;49.404;7.734;2023-05-22T05:55:49;96985.28;;;15.73;100.00
23616;BME280;11985;49.404;7.734;2023-05-22T06:00:50;96993.81;;;15.97;100.00
23616;BME280;11985;49.404;7.734;2023-05-22T06:05:54;96988.81;;;16.23;100.00
23616;BME280;11985;49.404;7.734;2023-05-22T06:10:57;96995.63;;;16.84;100.00
23616;BME280;11985;49.404;7.734;2023-05-22T06:16:00;96993.19;;;17.47;100.00
23616;BME280;11985;49.404;7.734;2023-05-22T06:21:03;97003.94;;;18.05;100.00
23616;BME280;11985;49.404;7.734;2023-05-22T06:26:04;97008.28;;;18.31;100.00
23616;BME280;11985;49.404;7.734;2023-05-22T06:31:06;97002.00;;;18.58;100.00
23616;BME280;11985;49.404;7.734;2023-05-22T06:36:10;96996.22;;;18.91;100.00
23616;BME280;11985;49.404;7.734;2023-05-22T06:41:12;96998.91;;;19.22;100.00
23616;BME280;11985;49.404;7.734;2023-05-22T06:46:13;96993.53;;;19.37;100.00
23616;BME280;11985;49.404;7.734;2023-05-22T06:51:16;96998.31;;;19.76;100.00
23616;BME280;11985;49.404;7.734;2023-05-22T06:56:18;96997.28;;;19.72;100.00
23616;BME280;11985;49.404;7.734;2023-05-22T07:01:21;97005.03;;;19.68;100.00
23616;BME280;11985;49.404;7.734;2023-05-22T07:06:25;97020.25;;;19.68;100.00
23616;BME280;11985;49.404;7.734;2023-05-22T07:11:27;97019.91;;;20.10;100.00
23616;BME280;11985;49.404;7.734;2023-05-22T07:16:29;97020.59;;;20.31;100.00
23616;BME280;11985;49.404;7.734;2023-05-22T07:21:33;97021.66;;;20.40;99.35
23616;BME280;11985;49.404;7.734;2023-05-22T07:26:35;97018.94;;;20.45;98.35
23616;BME280;11985;49.404;7.734;2023-05-22T07:31:37;97031.75;;;21.03;96.98
23616;BME280;11985;49.404;7.734;2023-05-22T07:36:40;97038.28;;;21.26;93.34
23616;BME280;11985;49.404;7.734;2023-05-22T07:41:46;97031.84;;;21.66;90.77
23616;BME280;11985;49.404;7.734;2023-05-22T07:46:49;97031.22;;;21.98;87.87
23616;BME280;11985;49.404;7.734;2023-05-22T07:51:52;97035.31;;;22.20;86.49
23616;BME280;11985;49.404;7.734;2023-05-22T07:56:54;97038.44;;;22.70;83.84
23616;BME280;11985;49.404;7.734;2023-05-22T08:01:56;97044.81;;;22.98;79.90
23616;BME280;11985;49.404;7.734;2023-05-22T08:07:00;97044.69;;;22.89;77.44
23616;BME280;11985;49.404;7.734;2023-05-22T08:12:03;97051.81;;;22.75;76.22
23616;BME280;11985;49.404;7.734;2023-05-22T08:17:06;97045.09;;;22.53;77.09
23616;BME280;11985;49.404;7.734;2023-05-22T08:22:10;97055.09;;;21.71;78.35
23616;BME280;11985;49.404;7.734;2023-05-22T08:27:11;97051.09;;;21.68;77.96
23616;BME280;11985;49.404;7.734;2023-05-22T08:32:13;97049.28;;;21.87;78.32
23616;BME280;11985;49.404;7.734;2023-05-22T08:37:16;97042.75;;;22.28;77.23
23616;BME280;11985;49.404;7.734;2023-05-22T08:42:17;97037.06;;;22.96;76.46
23616;BME280;11985;49.404;7.734;2023-05-22T08:47:19;97044.63;;;23.45;73.34
23616;BME280;11985;49.404;7.734;2023-05-22T08:52:30;97037.06;;;23.48;70.26
23616;BME280;11985;49.404;7.734;2023-05-22T08:57:33;97031.81;;;23.89;70.14
23616;BME280;11985;49.404;7.734;2023-05-22T09:02:36;97037.41;;;24.06;66.49
23616;BME280;11985;49.404;7.734;2023-05-22T09:07:39;97029.97;;;24.44;65.02
23616;BME280;11985;49.404;7.734;2023-05-22T09:12:58;97035.81;;;24.60;62.89
23616;BME280;11985;49.404;7.734;2023-05-22T09:18:02;97041.97;;;24.74;62.11
23616;BME280;11985;49.404;7.734;2023-05-22T09:23:11;97038.53;;;25.10;60.39
23616;BME280;11985;49.404;7.734;2023-05-22T09:28:14;97040.59;;;25.13;59.10
23616;BME280;11985;49.404;7.734;2023-05-22T09:33:16;97032.50;;;25.13;59.08
23616;BME280;11985;49.404;7.734;2023-05-22T09:38:20;97034.38;;;25.49;58.41
23616;BME280;11985;49.404;7.734;2023-05-22T09:43:23;97030.31;;;25.83;57.52
23616;BME280;11985;49.404;7.734;2023-05-22T09:48:25;97034.47;;;25.89;55.99
23616;BME280;11985;49.404;7.734;2023-05-22T09:53:28;97025.16;;;25.72;54.48
23616;BME280;11985;49.404;7.734;2023-05-22T09:58:34;97024.84;;;25.74;54.04
23616;BME280;11985;49.404;7.734;2023-05-22T10:03:39;97020.97;;;26.28;54.46
23616;BME280;11985;49.404;7.734;2023-05-22T10:08:49;97011.22;;;26.58;53.73
23616;BME280;11985;49.404;7.734;2023-05-22T10:13:53;97020.47;;;26.92;52.18
23616;BME280;11985;49.404;7.734;2023-05-22T10:18:58;97014.28;;;27.09;52.57
23616;BME280;11985;49.404;7.734;2023-05-22T10:24:03;97008.38;;;26.72;50.61
23616;BME280;11985;49.404;7.734;2023-05-22T10:29:10;97008.47;;;26.01;51.55
23616;BME280;11985;49.404;7.734;2023-05-22T10:34:21;96999.56;;;26.41;52.32
23616;BME280;11985;49.404;7.734;2023-05-22T10:39:36;97010.69;;;26.39;52.51
23616;BME280;11985;49.404;7.734;2023-05-22T10:44:42;97000.91;;;26.69;51.74
23616;BME280;11985;49.404;7.734;2023-05-22T10:49:44;96999.19;;;26.82;51.16
23616;BME280;11985;49.404;7.734;2023-05-22T10:54:53;96995.84;;;26.76;51.08
23616;BME280;11985;49.404;7.734;2023-05-22T11:00:05;96991.22;;;26.68;50.64
23616;BME280;11985;49.404;7.734;2023-05-22T11:05:33;96985.06;;;27.11;50.26
23616;BME280;11985;49.404;7.734;2023-05-22T11:10:53;96979.91;;;27.35;49.33
23616;BME280;11985;49.404;7.734;2023-05-22T11:15:55;96982.28;;;27.54;49.30
23616;BME280;11985;49.404;7.734;2023-05-22T11:20:58;96970.97;;;27.61;48.09
23616;BME280;11985;49.404;7.734;2023-05-22T11:26:19;96974.38;;;27.23;47.35
23616;BME280;11985;49.404;7.734;2023-05-22T11:31:24;96972.63;;;26.93;48.08
23616;BME280;11985;49.404;7.734;2023-05-22T11:36:27;96969.13;;;26.92;48.61
23616;BME280;11985;49.404;7.734;2023-05-22T11:41:31;96968.22;;;26.22;48.83
23616;BME280;11985;49.404;7.734;2023-05-22T11:46:33;96966.50;;;25.87;48.81
23616;BME280;11985;49.404;7.734;2023-05-22T11:51:37;96967.91;;;25.75;48.79
23616;BME280;11985;49.404;7.734;2023-05-22T11:56:41;96952.28;;;26.03;48.87
23616;BME280;11985;49.404;7.734;2023-05-22T12:01:43;96951.88;;;26.36;49.69
23616;BME280;11985;49.404;7.734;2023-05-22T12:06:45;96959.06;;;25.84;48.86
23616;BME280;11985;49.404;7.734;2023-05-22T12:11:48;96959.19;;;25.78;50.35
23616;BME280;11985;49.404;7.734;2023-05-22T12:16:50;96951.03;;;26.01;49.48
23616;BME280;11985;49.404;7.734;2023-05-22T12:21:53;96954.78;;;26.40;50.25
23616;BME280;11985;49.404;7.734;2023-05-22T12:26:56;96953.88;;;26.62;49.94
23616;BME280;11985;49.404;7.734;2023-05-22T12:32:00;96951.53;;;26.20;49.15
23616;BME280;11985;49.404;7.734;2023-05-22T12:37:03;96948.19;;;26.15;50.19
23616;BME280;11985;49.404;7.734;2023-05-22T12:42:06;96956.59;;;25.73;50.36
23616;BME280;11985;49.404;7.734;2023-05-22T12:47:08;96948.78;;;25.63;51.11
23616;BME280;11985;49.404;7.734;2023-05-22T12:52:10;96951.09;;;25.78;51.44
23616;BME280;11985;49.404;7.734;2023-05-22T12:57:13;96957.03;;;25.36;51.83
23616;BME280;11985;49.404;7.734;2023-05-22T13:02:16;96970.28;;;25.23;53.16
23616;BME280;11985;49.404;7.734;2023-05-22T13:07:17;96958.78;;;24.37;55.49
23616;BME280;11985;49.404;7.734;2023-05-22T13:12:20;96953.28;;;24.28;57.11
23616;BME280;11985;49.404;7.734;2023-05-22T13:17:22;96951.28;;;24.34;58.45
23616;BME280;11985;49.404;7.734;2023-05-22T13:22:24;96944.28;;;24.60;59.25
23616;BME280;11985;49.404;7.734;2023-05-22T13:27:27;96934.28;;;25.19;59.69
23616;BME280;11985;49.404;7.734;2023-05-22T13:32:29;96933.38;;;25.95;57.09
23616;BME280;11985;49.404;7.734;2023-05-22T13:37:30;96928.13;;;26.64;53.88
23616;BME280;11985;49.404;7.734;2023-05-22T13:42:33;96921.59;;;27.00;52.53
23616;BME280;11985;49.404;7.734;2023-05-22T13:47:35;96915.97;;;27.40;50.81
23616;BME280;11985;49.404;7.734;2023-05-22T13:52:37;96914.56;;;27.80;48.37
23616;BME280;11985;49.404;7.734;2023-05-22T13:57:40;96906.25;;;28.45;48.69
23616;BME280;11985;49.404;7.734;2023-05-22T14:02:41;96913.38;;;27.52;47.01
23616;BME280;11985;49.404;7.734;2023-05-22T14:07:43;96920.00;;;26.81;47.35
23616;BME280;11985;49.404;7.734;2023-05-22T14:12:46;96922.34;;;27.44;47.10
23616;BME280;11985;49.404;7.734;2023-05-22T14:17:48;96917.94;;;28.07;44.67
23616;BME280;11985;49.404;7.734;2023-05-22T14:22:50;96935.13;;;28.11;43.64
23616;BME280;11985;49.404;7.734;2023-05-22T14:27:53;96952.09;;;27.91;43.59
23616;BME280;11985;49.404;7.734;2023-05-22T14:32:54;96954.69;;;27.78;43.55
23616;BME280;11985;49.404;7.734;2023-05-22T14:37:56;96948.69;;;28.02;43.48
23616;BME280;11985;49.404;7.734;2023-05-22T14:42:59;96946.28;;;28.81;41.98
23616;BME280;11985;49.404;7.734;2023-05-22T14:48:00;96945.19;;;29.15;40.75
23616;BME280;11985;49.404;7.734;2023-05-22T14:53:02;96943.25;;;29.03;40.25
23616;BME280;11985;49.404;7.734;2023-05-22T14:58:05;96949.72;;;28.90;40.53
23616;BME280;11985;49.404;7.734;2023-05-22T15:03:06;96954.25;;;29.19;40.90
23616;BME280;11985;49.404;7.734;2023-05-22T15:08:08;96962.75;;;28.97;41.03
23616;BME280;11985;49.404;7.734;2023-05-22T15:13:11;96961.28;;;29.20;41.48
23616;BME280;11985;49.404;7.734;2023-05-22T15:18:13;96954.69;;;29.09;41.45
23616;BME280;11985;49.404;7.734;2023-05-22T15:23:15;96971.03;;;29.00;40.83
23616;BME280;11985;49.404;7.734;2023-05-22T15:28:18;96954.41;;;27.71;42.80
23616;BME280;11985;49.404;7.734;2023-05-22T15:33:20;96958.63;;;26.73;44.70
23616;BME280;11985;49.404;7.734;2023-05-22T15:38:21;96955.72;;;26.26;44.96
23616;BME280;11985;49.404;7.734;2023-05-22T15:43:24;96957.69;;;26.03;45.04
23616;BME280;11985;49.404;7.734;2023-05-22T15:48:26;96961.16;;;25.64;45.36
23616;BME280;11985;49.404;7.734;2023-05-22T15:53:28;96957.50;;;25.60;46.30
23616;BME280;11985;49.404;7.734;2023-05-22T15:58:31;96955.59;;;25.30;46.02
23616;BME280;11985;49.404;7.734;2023-05-22T16:03:32;96964.75;;;25.51;46.04
23616;BME280;11985;49.404;7.734;2023-05-22T16:08:34;96970.25;;;26.08;45.65
23616;BME280;11985;49.404;7.734;2023-05-22T16:13:37;96975.59;;;26.48;45.51
23616;BME280;11985;49.404;7.734;2023-05-22T16:18:39;96968.66;;;27.07;43.88
23616;BME280;11985;49.404;7.734;2023-05-22T16:23:40;96970.25;;;26.91;43.65
23616;BME280;11985;49.404;7.734;2023-05-22T16:28:43;96961.19;;;26.61;43.35
23616;BME280;11985;49.404;7.734;2023-05-22T16:33:45;96983.28;;;26.80;43.84
23616;BME280;11985;49.404;7.734;2023-05-22T16:38:46;96993.94;;;27.20;43.31
23616;BME280;11985;49.404;7.734;2023-05-22T16:43:49;97007.75;;;26.84;43.37
23616;BME280;11985;49.404;7.734;2023-05-22T16:48:51;97006.28;;;26.52;43.71
23616;BME280;11985;49.404;7.734;2023-05-22T16:53:52;97010.25;;;26.06;44.89
23616;BME280;11985;49.404;7.734;2023-05-22T16:58:55;97019.16;;;25.75;46.06
23616;BME280;11985;49.404;7.734;2023-05-22T17:03:57;97008.16;;;25.72;47.22
23616;BME280;11985;49.404;7.734;2023-05-22T17:08:58;97009.97;;;26.16;47.71
23616;BME280;11985;49.404;7.734;2023-05-22T17:14:01;96996.03;;;26.31;47.23
23616;BME280;11985;49.404;7.734;2023-05-22T17:19:03;97004.34;;;26.04;47.39
23616;BME280;11985;49.404;7.734;2023-05-22T17:24:05;97006.06;;;25.38;48.17
23616;BME280;11985;49.404;7.734;2023-05-22T17:29:11;97010.78;;;24.96;48.92
23616;BME280;11985;49.404;7.734;2023-05-22T17:34:12;97004.28;;;24.74;50.23
23616;BME280;11985;49.404;7.734;2023-05-22T17:39:14;97011.91;;;24.45;50.77
23616;BME280;11985;49.404;7.734;2023-05-22T17:44:17;97021.06;;;24.16;51.66
23616;BME280;11985;49.404;7.734;2023-05-22T17:49:18;97016.16;;;23.91;52.59
23616;BME280;11985;49.404;7.734;2023-05-22T17:54:20;97019.81;;;23.67;53.77
23616;BME280;11985;49.404;7.734;2023-05-22T17:59:23;97009.34;;;23.33;55.01
23616;BME280;11985;49.404;7.734;2023-05-22T18:04:24;97009.03;;;23.02;56.17
23616;BME280;11985;49.404;7.734;2023-05-22T18:09:26;97011.59;;;22.94;57.41
23616;BME280;11985;49.404;7.734;2023-05-22T18:14:29;97009.41;;;22.96;58.18
23616;BME280;11985;49.404;7.734;2023-05-22T18:19:30;97017.28;;;22.87;59.29
23616;BME280;11985;49.404;7.734;2023-05-22T18:24:32;97013.19;;;22.71;60.13
23616;BME280;11985;49.404;7.734;2023-05-22T18:29:37;97025.38;;;22.44;60.71
23616;BME280;11985;49.404;7.734;2023-05-22T18:34:38;97025.81;;;22.03;61.76
23616;BME280;11985;49.404;7.734;2023-05-22T18:39:41;97033.72;;;21.66;63.48
23616;BME280;11985;49.404;7.734;2023-05-22T18:44:44;97035.88;;;21.24;65.93
23616;BME280;11985;49.404;7.734;2023-05-22T18:49:45;97033.56;;;21.13;68.13
23616;BME280;11985;49.404;7.734;2023-05-22T18:54:47;97039.78;;;21.03;69.69
23616;BME280;11985;49.404;7.734;2023-05-22T18:59:50;97039.63;;;20.89;71.58
23616;BME280;11985;49.404;7.734;2023-05-22T19:04:51;97036.50;;;20.77;73.11
23616;BME280;11985;49.404;7.734;2023-05-22T19:09:53;97035.03;;;20.40;74.29
23616;BME280;11985;49.404;7.734;2023-05-22T19:14:56;97042.03;;;20.21;76.87
23616;BME280;11985;49.404;7.734;2023-05-22T19:19:58;97045.28;;;20.08;78.53
23616;BME280;11985;49.404;7.734;2023-05-22T19:25:02;97044.00;;;19.85;79.91
23616;BME280;11985;49.404;7.734;2023-05-22T19:30:07;97037.09;;;19.68;81.66
23616;BME280;11985;49.404;7.734;2023-05-22T19:35:08;97043.22;;;19.69;82.85
23616;BME280;11985;49.404;7.734;2023-05-22T19:40:10;97045.91;;;19.74;83.89
23616;BME280;11985;49.404;7.734;2023-05-22T19:45:13;97057.09;;;19.71;84.40
23616;BME280;11985;49.404;7.734;2023-05-22T19:50:16;97059.25;;;19.64;85.22
23616;BME280;11985;49.404;7.734;2023-05-22T19:55:18;97065.66;;;19.42;86.15
23616;BME280;11985;49.404;7.734;2023-05-22T20:00:21;97085.66;;;19.24;88.02
23616;BME280;11985;49.404;7.734;2023-05-22T20:05:23;97104.59;;;19.13;89.28
23616;BME280;11985;49.404;7.734;2023-05-22T20:10:25;97112.56;;;18.97;90.95
23616;BME280;11985;49.404;7.734;2023-05-22T20:15:28;97117.88;;;18.87;93.14
23616;BME280;11985;49.404;7.734;2023-05-22T20:20:29;97130.97;;;18.84;95.05
23616;BME280;11985;49.404;7.734;2023-05-22T20:25:31;97137.59;;;18.76;96.76
23616;BME280;11985;49.404;7.734;2023-05-22T20:30:34;97141.78;;;18.62;98.64
23616;BME280;11985;49.404;7.734;2023-05-22T20:35:35;97141.22;;;18.55;100.00
23616;BME280;11985;49.404;7.734;2023-05-22T20:40:37;97159.25;;;18.42;100.00
23616;BME280;11985;49.404;7.734;2023-05-22T20:45:43;97164.03;;;18.35;100.00
23616;BME280;11985;49.404;7.734;2023-05-22T20:50:45;97170.31;;;18.19;100.00
23616;BME280;11985;49.404;7.734;2023-05-22T20:55:47;97182.28;;;18.11;100.00
23616;BME280;11985;49.404;7.734;2023-05-22T21:00:52;97190.50;;;18.05;100.00
23616;BME280;11985;49.404;7.734;2023-05-22T21:05:54;97192.06;;;18.01;100.00
23616;BME280;11985;49.404;7.734;2023-05-22T21:10:55;97201.50;;;17.86;100.00
23616;BME280;11985;49.404;7.734;2023-05-22T21:15:58;97203.81;;;17.73;100.00
23616;BME280;11985;49.404;7.734;2023-05-22T21:21:00;97190.63;;;17.61;100.00
23616;BME280;11985;49.404;7.734;2023-05-22T21:26:02;97188.25;;;17.37;100.00
23616;BME280;11985;49.404;7.734;2023-05-22T21:31:04;97186.28;;;17.28;100.00
23616;BME280;11985;49.404;7.734;2023-05-22T21:36:07;97201.16;;;17.24;100.00
23616;BME280;11985;49.404;7.734;2023-05-22T21:41:08;97208.22;;;17.13;100.00
23616;BME280;11985;49.404;7.734;2023-05-22T21:46:12;97209.28;;;17.12;100.00
23616;BME280;11985;49.404;7.734;2023-05-22T21:51:13;97218.31;;;17.11;100.00
23616;BME280;11985;49.404;7.734;2023-05-22T21:56:15;97220.59;;;17.02;100.00
23616;BME280;11985;49.404;7.734;2023-05-22T22:01:18;97223.44;;;16.96;100.00
23616;BME280;11985;49.404;7.734;2023-05-22T22:06:19;97223.06;;;16.87;100.00
23616;BME280;11985;49.404;7.734;2023-05-22T22:11:21;97220.56;;;16.80;100.00
23616;BME280;11985;49.404;7.734;2023-05-22T22:16:24;97222.13;;;16.76;100.00
23616;BME280;11985;49.404;7.734;2023-05-22T22:21:27;97223.25;;;16.63;100.00
23616;BME280;11985;49.404;7.734;2023-05-22T22:26:29;97221.25;;;16.54;100.00
23616;BME280;11985;49.404;7.734;2023-05-22T22:31:32;97213.38;;;16.42;100.00
23616;BME280;11985;49.404;7.734;2023-05-22T22:36:34;97211.41;;;16.32;100.00
23616;BME280;11985;49.404;7.734;2023-05-22T22:41:36;97213.66;;;16.24;100.00
23616;BME280;11985;49.404;7.734;2023-05-22T22:46:39;97221.88;;;16.22;100.00
23616;BME280;11985;49.404;7.734;2023-05-22T22:51:41;97227.03;;;16.12;100.00
23616;BME280;11985;49.404;7.734;2023-05-22T22:56:45;97231.19;;;16.08;100.00
23616;BME280;11985;49.404;7.734;2023-05-22T23:01:48;97235.25;;;16.10;100.00
23616;BME280;11985;49.404;7.734;2023-05-22T23:06:49;97244.41;;;16.03;100.00
23616;BME280;11985;49.404;7.734;2023-05-22T23:11:51;97247.94;;;15.92;100.00
23616;BME280;11985;49.404;7.734;2023-05-22T23:16:55;97241.47;;;15.88;100.00
23616;BME280;11985;49.404;7.734;2023-05-22T23:21:56;97251.94;;;15.77;100.00
23616;BME280;11985;49.404;7.734;2023-05-22T23:26:58;97242.59;;;15.75;100.00
23616;BME280;11985;49.404;7.734;2023-05-22T23:32:01;97238.56;;;15.72;100.00
23616;BME280;11985;49.404;7.734;2023-05-22T23:37:03;97240.19;;;15.73;100.00
23616;BME280;11985;49.404;7.734;2023-05-22T23:42:05;97236.47;;;15.74;100.00
23616;BME280;11985;49.404;7.734;2023-05-22T23:47:10;97249.66;;;15.69;100.00
23616;BME280;11985;49.404;7.734;2023-05-22T23:52:11;97243.22;;;15.65;100.00
23616;BME280;11985;49.404;7.734;2023-05-22T23:57:13;97245.31;;;15.63;100.00
